createdAt,value
2022-10-20T00:01:24.104Z,100855.19
2022-10-20T00:05:27.197Z,100850.69
2022-10-20T00:09:30.196Z,100844.47
2022-10-20T00:13:33.304Z,100845.19
2022-10-20T00:17:37.719Z,100838.97
2022-10-20T00:21:40.749Z,100837.09
2022-10-20T00:25:43.831Z,100830.88
2022-10-20T00:29:49.191Z,100836.03
2022-10-20T00:33:54.030Z,100826.31
2022-10-20T00:37:57.119Z,100832.34
2022-10-20T00:42:03.742Z,100819.94
2022-10-20T00:46:07.043Z,100820.72
2022-10-20T00:50:15.041Z,100819.72
2022-10-20T00:54:21.465Z,100813.47
2022-10-20T00:58:25.806Z,100802.84
2022-10-20T01:02:29.095Z,100802.78
2022-10-20T01:06:33.624Z,100794.88
2022-10-20T01:10:42.450Z,100795.69
2022-10-20T01:14:52.209Z,100785.97
2022-10-20T01:19:03.377Z,100780.63
2022-10-20T01:23:39.167Z,100792.72
2022-10-20T01:27:45.772Z,100791.59
2022-10-20T01:31:57.316Z,100794.91
2022-10-20T01:36:05.823Z,100792.94
2022-10-20T01:40:17.511Z,100784.88
2022-10-20T01:44:26.158Z,100788.25
2022-10-20T01:48:33.259Z,100784.56
2022-10-20T01:52:36.522Z,100772.28
2022-10-20T01:56:47.062Z,100773.97
2022-10-20T02:00:54.074Z,100775.75
2022-10-20T02:05:12.320Z,100766.97
2022-10-20T02:09:21.055Z,100769.50
2022-10-20T02:13:25.648Z,100770.34
2022-10-20T02:17:30.468Z,100768.56
2022-10-20T02:21:33.459Z,100772.03
2022-10-20T02:25:39.341Z,100759.72
2022-10-20T02:29:46.135Z,100762.31
2022-10-20T02:33:51.565Z,100765.72
2022-10-20T02:37:54.595Z,100766.53
2022-10-20T02:41:57.600Z,100755.91
2022-10-20T02:46:00.670Z,100752.31
2022-10-20T02:50:05.427Z,100752.22
2022-10-20T02:54:08.420Z,100750.38
2022-10-20T02:58:11.549Z,100752.91
2022-10-20T03:02:14.571Z,100740.56
2022-10-20T03:06:18.982Z,100759.69
2022-10-20T03:10:22.077Z,100750.75
2022-10-20T03:14:25.147Z,100759.22
2022-10-20T03:18:28.222Z,100763.34
2022-10-20T03:22:32.649Z,100758.75
2022-10-20T03:26:35.782Z,100755.97
2022-10-20T03:30:38.827Z,100760.31
2022-10-20T03:34:41.838Z,100765.50
2022-10-20T03:38:46.440Z,100762.00
2022-10-20T03:42:49.444Z,100759.28
2022-10-20T03:46:52.463Z,100763.53
2022-10-20T03:50:55.466Z,100759.97
2022-10-20T03:54:59.846Z,100754.59
2022-10-20T04:03:07.356Z,100760.53
2022-10-20T04:07:10.366Z,100756.88
2022-10-20T04:11:14.876Z,100745.38
2022-10-20T04:15:19.292Z,100753.03
2022-10-20T04:19:22.268Z,100768.56
2022-10-20T04:23:30.680Z,100758.00
2022-10-20T04:27:35.686Z,100767.53
2022-10-20T04:31:41.747Z,100763.06
2022-10-20T04:35:46.783Z,100755.91
2022-10-20T04:39:51.155Z,100752.38
2022-10-20T04:43:55.532Z,100753.19
2022-10-20T04:47:58.571Z,100753.16
2022-10-20T04:52:01.848Z,100755.78
2022-10-20T04:56:06.083Z,100738.22
2022-10-20T05:00:11.560Z,100733.00
2022-10-20T05:04:20.950Z,100735.50
2022-10-20T05:08:23.991Z,100736.38
2022-10-20T05:12:27.921Z,100725.78
2022-10-20T05:16:32.767Z,100725.69
2022-10-20T05:20:41.141Z,100740.41
2022-10-20T05:24:48.942Z,100738.59
2022-10-20T05:28:52.752Z,100746.34
2022-10-20T05:32:57.257Z,100736.56
2022-10-20T05:37:00.329Z,100739.19
2022-10-20T05:41:07.207Z,100726.03
2022-10-20T05:45:10.858Z,100734.72
2022-10-20T05:49:17.650Z,100746.97
2022-10-20T05:53:20.919Z,100752.16
2022-10-20T05:57:24.229Z,100753.84
2022-10-20T06:01:38.761Z,100753.03
2022-10-20T06:05:43.235Z,100761.81
2022-10-20T06:09:46.250Z,100757.44
2022-10-20T06:13:51.923Z,100764.50
2022-10-20T06:17:56.130Z,100773.28
2022-10-20T06:22:03.973Z,100773.34
2022-10-20T06:26:12.311Z,100778.72
2022-10-20T06:30:15.565Z,100783.22
2022-10-20T06:34:20.717Z,100789.50
2022-10-20T06:38:25.606Z,100773.09
2022-10-20T06:42:29.463Z,100778.56
2022-10-20T06:46:34.318Z,100769.16
2022-10-20T06:50:37.347Z,100776.38
2022-10-20T06:54:41.739Z,100788.00
2022-10-20T06:58:46.708Z,100798.81
2022-10-20T07:02:51.056Z,100795.53
2022-10-20T07:06:54.591Z,100797.50
2022-10-20T07:11:03.735Z,100785.63
2022-10-20T07:15:07.890Z,100794.69
2022-10-20T07:19:11.221Z,100799.47
2022-10-20T07:23:14.407Z,100791.94
2022-10-20T07:27:18.771Z,100787.97
2022-10-20T07:31:23.830Z,100778.53
2022-10-20T07:35:26.908Z,100775.34
2022-10-20T07:39:29.915Z,100773.00
2022-10-20T07:43:34.346Z,100769.78
2022-10-20T07:47:38.298Z,100762.13
2022-10-20T07:51:42.327Z,100755.31
2022-10-20T07:55:46.060Z,100745.94
2022-10-20T07:59:50.463Z,100751.34
2022-10-20T08:03:53.490Z,100757.69
2022-10-20T08:07:58.294Z,100743.91
2022-10-20T08:12:01.436Z,100749.38
2022-10-20T08:16:07.846Z,100746.09
2022-10-20T08:20:23.609Z,100744.59
2022-10-20T08:24:29.501Z,100745.78
2022-10-20T08:28:32.551Z,100735.38
2022-10-20T08:32:37.284Z,100732.06
2022-10-20T08:36:40.566Z,100723.59
2022-10-20T08:40:45.020Z,100731.56
2022-10-20T08:44:48.796Z,100717.75
2022-10-20T08:48:53.307Z,100718.81
2022-10-20T08:53:00.339Z,100720.91
2022-10-20T08:57:03.374Z,100714.97
2022-10-20T09:01:19.187Z,100713.41
2022-10-20T09:05:28.700Z,100720.59
2022-10-20T09:09:33.184Z,100713.75
2022-10-20T09:13:38.451Z,100717.47
2022-10-20T09:17:43.115Z,100710.66
2022-10-20T09:21:52.474Z,100704.69
2022-10-20T09:25:55.545Z,100699.59
2022-10-20T09:29:58.610Z,100697.19
2022-10-20T09:34:01.649Z,100692.97
2022-10-20T09:38:19.853Z,100693.06
2022-10-20T09:42:26.480Z,100683.63
2022-10-20T09:46:32.118Z,100683.81
2022-10-20T09:50:39.594Z,100678.72
2022-10-20T09:54:48.755Z,100675.34
2022-10-20T09:58:52.013Z,100670.22
2022-10-20T10:03:25.675Z,100665.91
2022-10-20T10:07:32.868Z,100661.59
2022-10-20T10:11:38.074Z,100663.47
2022-10-20T10:15:41.946Z,100666.25
2022-10-20T10:19:52.530Z,100658.38
2022-10-20T10:24:01.202Z,100654.94
2022-10-20T10:28:21.262Z,100647.03
2022-10-20T10:32:27.285Z,100656.00
2022-10-20T10:36:34.208Z,100640.22
2022-10-20T10:40:46.650Z,100634.09
2022-10-20T10:45:00.751Z,100620.03
2022-10-20T10:49:26.327Z,100615.72
2022-10-20T10:53:43.044Z,100613.13
2022-10-20T10:57:57.862Z,100599.94
2022-10-20T11:02:25.183Z,100596.44
2022-10-20T11:06:39.671Z,100589.34
2022-10-20T11:10:53.071Z,100574.38
2022-10-20T11:15:16.603Z,100571.72
2022-10-20T11:19:39.751Z,100554.09
2022-10-20T11:24:03.636Z,100547.06
2022-10-20T11:28:27.877Z,100535.56
2022-10-20T11:36:48.552Z,100533.81
2022-10-20T11:41:01.374Z,100522.34
2022-10-20T11:45:18.111Z,100515.25
2022-10-20T11:49:21.243Z,100513.50
2022-10-20T11:53:39.573Z,100501.97
2022-10-20T11:57:55.371Z,100500.16
2022-10-20T12:02:47.484Z,100493.13
2022-10-20T12:07:10.646Z,100486.03
2022-10-20T12:11:23.066Z,100473.66
2022-10-20T12:15:28.875Z,100470.06
2022-10-20T12:19:33.217Z,100468.28
2022-10-20T12:24:03.725Z,100464.72
2022-10-20T12:28:41.272Z,100460.31
2022-10-20T12:33:16.635Z,100461.19
2022-10-20T12:37:21.671Z,100455.03
2022-10-20T12:41:30.142Z,100442.69
2022-10-20T12:45:41.537Z,100440.03
2022-10-20T12:49:54.565Z,100446.22
2022-10-20T12:54:02.574Z,100435.59
2022-10-20T12:58:13.995Z,100423.22
2022-10-20T13:03:01.327Z,100424.13
2022-10-20T13:07:05.819Z,100401.13
2022-10-20T13:11:34.419Z,100396.69
2022-10-20T13:15:39.950Z,100394.88
2022-10-20T13:19:47.721Z,100385.16
2022-10-20T13:23:58.777Z,100381.63
2022-10-20T13:28:07.730Z,100382.50
2022-10-20T13:32:21.455Z,100374.59
2022-10-20T13:36:36.638Z,100375.47
2022-10-20T13:40:49.966Z,100381.66
2022-10-20T13:45:03.249Z,100383.44
2022-10-20T13:49:39.143Z,100385.22
2022-10-20T13:53:45.601Z,100377.19
2022-10-20T13:57:55.576Z,100380.72
2022-10-20T14:02:01.393Z,100380.69
2022-10-20T14:06:04.411Z,100387.75
2022-10-20T14:10:09.465Z,100370.94
2022-10-20T14:14:19.239Z,100368.31
2022-10-20T14:18:25.154Z,100360.38
2022-10-20T14:22:28.235Z,100354.19
2022-10-20T14:26:32.529Z,100367.47
2022-10-20T14:30:40.148Z,100356.03
2022-10-20T14:34:57.426Z,100358.69
2022-10-20T14:39:01.495Z,100357.84
2022-10-20T14:43:08.373Z,100357.84
2022-10-20T14:47:15.746Z,100353.44
2022-10-20T14:51:37.567Z,100360.53
2022-10-20T14:55:40.746Z,100356.16
2022-10-20T14:59:51.634Z,100344.69
2022-10-20T15:04:16.171Z,100350.03
2022-10-20T15:08:26.222Z,100339.44
2022-10-20T15:12:33.048Z,100331.56
2022-10-20T15:16:42.699Z,100333.34
2022-10-20T15:20:47.843Z,100323.66
2022-10-20T15:24:51.173Z,100316.59
2022-10-20T15:28:54.363Z,100313.13
2022-10-20T15:32:58.036Z,100314.88
2022-10-20T15:37:02.671Z,100305.16
2022-10-20T15:41:06.416Z,100292.81
2022-10-20T15:45:17.301Z,100280.50
2022-10-20T15:49:21.059Z,100284.91
2022-10-20T15:53:25.666Z,100285.81
2022-10-20T15:57:29.114Z,100287.56
2022-10-20T16:01:32.388Z,100277.88
2022-10-20T16:05:35.603Z,100286.72
2022-10-20T16:09:40.078Z,100296.44
2022-10-20T16:13:43.503Z,100299.97
2022-10-20T16:21:59.187Z,100280.56
2022-10-20T16:26:08.073Z,100281.47
2022-10-20T16:30:11.304Z,100294.69
2022-10-20T16:34:14.337Z,100299.13
2022-10-20T16:38:17.347Z,100289.44
2022-10-20T16:42:21.749Z,100284.13
2022-10-20T16:46:24.776Z,100289.44
2022-10-20T16:50:28.102Z,100281.50
2022-10-20T16:54:31.467Z,100285.91
2022-10-20T16:58:36.538Z,100286.81
2022-10-20T17:02:42.916Z,100283.28
2022-10-20T17:06:45.980Z,100290.34
2022-10-20T17:10:49.078Z,100282.41
2022-10-20T17:14:53.425Z,100277.09
2022-10-20T17:18:57.380Z,100276.22
2022-10-20T17:23:00.378Z,100272.69
2022-10-20T17:27:03.392Z,100274.44
2022-10-20T17:31:10.077Z,100269.16
2022-10-20T17:35:14.551Z,100269.13
2022-10-20T17:39:17.707Z,100261.19
2022-10-20T17:43:20.745Z,100239.16
2022-10-20T17:47:25.263Z,100255.91
2022-10-20T17:51:31.965Z,100248.88
2022-10-20T17:55:37.619Z,100240.03
2022-10-20T17:59:52.362Z,100240.94
2022-10-20T18:04:00.362Z,100232.13
2022-10-20T18:08:03.592Z,100232.13
2022-10-20T18:12:06.801Z,100237.41
2022-10-20T18:16:11.599Z,100233.88
2022-10-20T18:20:16.141Z,100228.59
2022-10-20T18:24:19.787Z,100234.75
2022-10-20T18:28:23.237Z,100233.88
2022-10-20T18:32:26.449Z,100224.22
2022-10-20T18:36:31.358Z,100218.03
2022-10-20T18:40:34.748Z,100216.28
2022-10-20T18:44:38.187Z,100223.31
2022-10-20T18:48:42.395Z,100220.66
2022-10-20T18:52:46.891Z,100219.78
2022-10-20T18:56:49.887Z,100209.22
2022-10-20T19:00:58.755Z,100202.16
2022-10-20T19:05:01.795Z,100203.94
2022-10-20T19:09:08.127Z,100203.91
2022-10-20T19:13:11.222Z,100201.25
2022-10-20T19:17:14.236Z,100198.63
2022-10-20T19:21:18.504Z,100195.09
2022-10-20T19:25:22.875Z,100189.84
2022-10-20T19:29:25.997Z,100189.84
2022-10-20T19:33:29.534Z,100181.88
2022-10-20T19:37:33.069Z,100188.06
2022-10-20T19:41:37.521Z,100184.53
2022-10-20T19:45:40.687Z,100186.31
2022-10-20T19:49:43.932Z,100188.06
2022-10-20T19:53:48.108Z,100177.50
2022-10-20T19:57:53.256Z,100177.50
2022-10-20T20:01:56.566Z,100185.41
2022-10-20T20:06:00.584Z,100182.75
2022-10-20T20:10:03.784Z,100177.47
2022-10-20T20:14:10.295Z,100187.16
2022-10-20T20:18:13.771Z,100173.97
2022-10-20T20:22:16.805Z,100172.19
2022-10-20T20:26:19.821Z,100174.84
2022-10-20T20:30:24.260Z,100165.16
2022-10-20T20:34:27.255Z,100170.44
2022-10-20T20:38:32.516Z,100164.28
2022-10-20T20:42:35.541Z,100166.00
2022-10-20T20:46:39.961Z,100150.19
2022-10-20T20:50:43.027Z,100154.56
2022-10-20T20:54:46.015Z,100159.84
2022-10-20T20:58:49.991Z,100152.81
2022-10-20T21:07:03.023Z,100137.81
2022-10-20T21:11:07.993Z,100142.22
2022-10-20T21:15:11.776Z,100137.78
2022-10-20T21:19:16.204Z,100135.19
2022-10-20T21:23:19.211Z,100131.63
2022-10-20T21:27:22.221Z,100141.31
2022-10-20T21:31:28.026Z,100126.34
2022-10-20T21:35:32.729Z,100128.97
2022-10-20T21:39:35.744Z,100140.41
2022-10-20T21:43:42.673Z,100155.34
2022-10-20T21:47:45.674Z,100154.44
2022-10-20T21:51:52.610Z,100163.25
2022-10-20T21:55:56.015Z,100150.03
2022-10-20T21:59:59.233Z,100165.84
2022-10-20T22:04:02.254Z,100147.41
2022-10-20T22:08:07.396Z,100139.47
2022-10-20T22:12:10.617Z,100127.13
2022-10-20T22:16:15.584Z,100113.94
2022-10-20T22:20:18.814Z,100105.16
2022-10-20T22:24:23.980Z,100092.84
2022-10-20T22:28:27.440Z,100104.25
2022-10-20T22:32:30.673Z,100120.91
2022-10-20T22:36:33.828Z,100144.63
2022-10-20T22:40:38.207Z,100149.88
2022-10-20T22:44:41.204Z,100137.59
2022-10-20T22:48:46.293Z,100127.91
2022-10-20T22:52:50.952Z,100121.75
2022-10-20T22:56:55.497Z,100111.19
2022-10-20T23:00:59.755Z,100133.13
2022-10-20T23:05:03.050Z,100133.16
2022-10-20T23:09:06.163Z,100132.25
2022-10-20T23:13:10.607Z,100123.44
2022-10-20T23:17:13.873Z,100108.50
2022-10-20T23:21:17.532Z,100113.75
2022-10-20T23:25:20.557Z,100111.09
2022-10-20T23:29:25.533Z,100112.78
2022-10-20T23:33:28.800Z,100116.31
2022-10-20T23:37:32.169Z,100104.91
2022-10-20T23:41:35.228Z,100118.91
2022-10-20T23:45:39.567Z,100111.00
2022-10-20T23:49:42.601Z,100091.66
2022-10-20T23:53:45.614Z,100096.00
2022-10-20T23:57:50.691Z,100097.75
